• Join FlightAware (Why Join?)
  • Login
  • US Flag 
12:37AM EDT


 

Airport Tracker/Info


-or-


 

Live Flight TrackerFlight Track Log ✈ RPA3161 ✈ 24-Apr-2013 ✈ KBTV - KDCA

Flight Track Log - Related Links

Times and Time Zones

All times are in EDT time to prevent confusion due to time zone crossing. See the RPA3161 flight status page for this flight to view local times or setup timezone preferences in your user account.

Time Position Orientation Groundspeed Altitude Reporting Facility
EDT Latitude Longitude Course Direction KTS MPH feet Rate Location/Type
12:25PM 44.1842 -73.2560 195° South  Level FlightAware Approximate
12:25PM 44.3069 -73.1769 198° South 261 300 7,900  Level Boston Center
12:26PM 44.0895 -73.2915 195° South  Level FlightAware Approximate
12:26PM 44.2358 -73.2050 196° South 261 300 10,800  Level Boston Center
12:27PM 43.9942 -73.3242 194° South  Level FlightAware Approximate
12:27PM 44.1481 -73.2414 197° South 291 335 13,500  Level Boston Center
12:28PM 43.8990 -73.3567 195° South  Level FlightAware Approximate
12:28PM 44.0625 -73.2781 197° South 310 357 15,700  Level Boston Center
12:29PM 43.8043 -73.3923 195° South  Level FlightAware Approximate
12:29PM 43.9747 -73.3142 196° South 322 371 18,200  Level Boston Center
12:30PM 43.7096 -73.4277 195° South  Level FlightAware Approximate
12:30PM 43.8869 -73.3503 197° South 329 379 20,300  Level Boston Center
12:31PM 43.6155 -73.4657 198° South  Level FlightAware Approximate
12:31PM 43.7947 -73.3864 196° South 334 384 22,000  Level Boston Center
12:32PM 43.7008 -73.4250 197° South 348 400 23,800 960 Climbing Boston Center
12:33PM 43.6044 -73.4608 195° South 355 409 24,000 60 Climbing Boston Center
12:34PM 43.5083 -73.4992 196° South 360 414 24,000  Level Boston Center
12:35PM 43.4122 -73.5375 196° South 360 414 24,000  Level Boston Center
12:36PM 43.3158 -73.5758 196° South 360 414 24,000  Level Boston Center
12:37PM 43.2175 -73.6167 197° South 365 420 24,000  Level Boston Center
12:38PM 43.1297 -73.6519 196° South 365 420 24,000  Level Boston Center
12:39PM 43.0333 -73.6928 197° South 365 420 24,000  Level Boston Center
12:40PM 42.9369 -73.7333 197° South 365 420 24,000  Level Boston Center
12:41PM 42.8386 -73.7708 196° South 365 420 24,000  Level Boston Center
12:43PM 42.7383 -73.8028 193° South 365 420 24,000  Level Boston Center
12:44PM 42.6069 -73.7883 175° South 375 432 24,000  Level Boston Center
12:45PM 42.4969 -73.7692 173° South 375 432 24,000  Level Boston Center
12:46PM 42.3908 -73.7528 173° South 380 437 24,000  Level Boston Center
12:47PM 42.3056 -73.7400 174° South 386 444 24,000  Level Boston Center
12:48PM 42.1764 -73.7203 174° South 386 444 24,000  Level Boston Center
12:49PM 42.0700 -73.7322 185° South 386 444 24,000  Level Boston Center
12:50PM 41.9631 -73.7914 202° Southwest 394 453 24,000  Level Boston Center
12:51PM 41.8539 -73.8503 202° Southwest 407 468 24,000  Level Boston Center
12:52PM 41.7617 -73.8983 201° Southwest 407 468 24,000  Level Boston Center
12:53PM 41.6544 -73.9544 201° Southwest 413 475 24,000  Level Boston Center
12:54PM 41.4869 -74.0417 201° Southwest 412 474 24,000  Level New York Center
12:55PM 41.3772 -74.0972 201° Southwest 412 474 24,000  Level New York Center
12:56PM 41.2692 -74.1553 202° Southwest 417 480 24,000  Level New York Center
12:57PM 41.1617 -74.2078 200° South 417 480 24,000  Level New York Center
12:58PM 41.0517 -74.2628 201° Southwest 417 480 24,000  Level New York Center
12:59PM 40.9458 -74.3178 201° Southwest 417 480 24,000  Level New York Center
01:00PM 40.8378 -74.3750 202° Southwest 417 480 24,000  Level New York Center
01:01PM 40.7497 -74.4636 217° Southwest 408 470 24,000  Level New York Center
01:02PM 40.6814 -74.5831 233° Southwest 402 463 24,000  Level New York Center
01:03PM 40.6108 -74.6967 231° Southwest 407 468 24,000  Level New York Center
01:04PM 40.5383 -74.8072 229° Southwest 407 468 24,000  Level New York Center
01:05PM 40.4617 -74.9144 227° Southwest 412 474 24,000  Level New York Center
01:06PM 40.3869 -75.0244 228° Southwest 412 474 24,000 -300 Level New York Center
01:07PM 40.3103 -75.1286 226° Southwest 407 468 23,500 -960 Descending New York Center
01:08PM 40.2353 -75.2353 227° Southwest 401 461 22,200 -780 Descending New York Center
01:09PM 40.1650 -75.3342 227° Southwest 396 456 22,000 -120 Descending New York Center
01:10PM 40.0986 -75.4275 227° Southwest 376 433 22,000  Level New York Center
01:11PM 40.0325 -75.5178 226° Southwest 362 417 22,000  Level New York Center
01:12PM 39.9683 -75.6083 227° Southwest 357 411 22,000  Level New York Center
01:13PM 39.9019 -75.7067 229° Southwest 357 411 22,000 -240 Level New York Center
01:14PM 39.8406 -75.8214 235° Southwest 362 417 21,600 -660 Descending New York Center
01:15PM 39.7883 -75.9256 237° Southwest 357 411 20,700 -900 Descending New York Center
01:16PM 39.7356 -76.0297 237° Southwest 357 411 19,800 -900 Descending New York Center
01:17PM 39.6814 -76.1256 234° Southwest 347 399 19,000 -900 Descending New York Center
01:18PM 39.6308 -76.2242 236° Southwest 340 391 18,100 -1,800 Descending New York Center
01:19PM 39.5667 -76.3167 228° Southwest 322 371 15,300 -2,640 Descending Potomac TRACON
01:20PM 39.5000 -76.3833 218° Southwest 312 359 12,800 -1,740 Descending Potomac TRACON
01:21PM 39.4167 -76.4500 212° Southwest 291 335 12,000 -420 Descending Potomac TRACON
01:22PM 39.3500 -76.5000 210° Southwest 295 339 12,000 -300 Level Potomac TRACON
01:23PM 39.2833 -76.5667 218° Southwest 293 337 11,500 -1,020 Descending Potomac TRACON
01:24PM 39.2167 -76.6167 210° Southwest 286 329 10,000 -780 Descending Potomac TRACON
01:25PM 39.1667 -76.6833 226° Southwest 282 325 10,000  Level Potomac TRACON
01:26PM 39.1333 -76.7667 243° Southwest 275 316 10,000 -840 Level Potomac TRACON
01:27PM 39.1000 -76.8333 237° Southwest 250 288 8,500 -1,020 Descending Potomac TRACON
01:28PM 39.0667 -76.9000 237° Southwest 211 243 8,000 -720 Descending Potomac TRACON
01:29PM 39.0333 -76.9500 229° Southwest 184 212 7,100 -960 Descending Potomac TRACON
01:30PM 39.0000 -77.0000 229° Southwest 183 211 6,100 -780 Descending Potomac TRACON
01:31PM 39.0333 -77.0500 311° West 219 252 5,700 -600 Descending Potomac TRACON
01:32PM 39.0833 -77.1000 322° Northwest 216 249 5,000 -420 Descending Potomac TRACON
01:33PM 39.1000 -77.1500 293° West 191 220 4,900 -540 Descending Potomac TRACON
01:34PM 39.0667 -77.2000 229° Southwest 170 196 4,000 -1,020 Descending Potomac TRACON
01:35PM 39.0333 -77.2333 218° Southwest 182 209 3,000 -540 Descending Potomac TRACON
01:36PM 39.0000 -77.2000 142° Southeast 174 200 3,000  Level Potomac TRACON
01:37PM 38.9667 -77.1500 131° Southeast 173 199 3,000 -360 Level Potomac TRACON
01:38PM 38.9333 -77.1167 142° Southeast 169 194 2,300 -720 Descending Potomac TRACON